sensor_id;sensor_type;location;lat;lon;timestamp;pressure;altitude;pressure_sealevel;temperature;humidity
13367;BME280;6752;52.612;13.630;2023-07-20T00:01:07;100319.01;;;15.90;100.00
13367;BME280;6752;52.612;13.630;2023-07-20T00:06:09;100323.02;;;15.75;100.00
13367;BME280;6752;52.612;13.630;2023-07-20T00:11:11;100316.30;;;15.79;100.00
13367;BME280;6752;52.612;13.630;2023-07-20T00:16:14;100323.16;;;15.60;100.00
13367;BME280;6752;52.612;13.630;2023-07-20T00:21:16;100328.42;;;15.62;100.00
13367;BME280;6752;52.612;13.630;2023-07-20T00:26:19;100338.36;;;15.87;100.00
13367;BME280;6752;52.612;13.630;2023-07-20T00:31:21;100337.14;;;15.88;100.00
13367;BME280;6752;52.612;13.630;2023-07-20T00:36:23;100338.45;;;15.83;100.00
13367;BME280;6752;52.612;13.630;2023-07-20T00:41:26;100340.72;;;15.89;100.00
13367;BME280;6752;52.612;13.630;2023-07-20T00:46:28;100345.31;;;15.81;100.00
13367;BME280;6752;52.612;13.630;2023-07-20T00:51:30;100344.98;;;15.72;100.00
13367;BME280;6752;52.612;13.630;2023-07-20T00:56:33;100344.00;;;15.70;100.00
13367;BME280;6752;52.612;13.630;2023-07-20T01:01:35;100344.89;;;15.80;100.00
13367;BME280;6752;52.612;13.630;2023-07-20T01:06:43;100343.73;;;15.87;100.00
13367;BME280;6752;52.612;13.630;2023-07-20T01:11:51;100342.84;;;15.82;100.00
13367;BME280;6752;52.612;13.630;2023-07-20T01:16:51;100338.79;;;15.71;100.00
13367;BME280;6752;52.612;13.630;2023-07-20T01:21:57;100330.31;;;15.77;100.00
13367;BME280;6752;52.612;13.630;2023-07-20T01:27:00;100327.83;;;15.76;100.00
13367;BME280;6752;52.612;13.630;2023-07-20T01:32:00;100333.16;;;15.90;100.00
13367;BME280;6752;52.612;13.630;2023-07-20T01:37:02;100329.88;;;15.93;100.00
13367;BME280;6752;52.612;13.630;2023-07-20T01:42:05;100342.12;;;15.94;100.00
13367;BME280;6752;52.612;13.630;2023-07-20T01:47:07;100345.40;;;15.91;100.00
13367;BME280;6752;52.612;13.630;2023-07-20T01:52:09;100350.87;;;15.86;100.00
13367;BME280;6752;52.612;13.630;2023-07-20T01:57:12;100346.61;;;15.87;100.00
13367;BME280;6752;52.612;13.630;2023-07-20T02:02:14;100341.04;;;15.79;100.00
13367;BME280;6752;52.612;13.630;2023-07-20T02:07:17;100344.36;;;15.84;100.00
13367;BME280;6752;52.612;13.630;2023-07-20T02:12:19;100338.11;;;15.72;100.00
13367;BME280;6752;52.612;13.630;2023-07-20T02:17:21;100334.50;;;15.67;100.00
13367;BME280;6752;52.612;13.630;2023-07-20T02:22:24;100334.28;;;15.60;100.00
13367;BME280;6752;52.612;13.630;2023-07-20T02:27:26;100336.01;;;15.66;100.00
13367;BME280;6752;52.612;13.630;2023-07-20T02:32:29;100345.20;;;15.65;100.00
13367;BME280;6752;52.612;13.630;2023-07-20T02:37:31;100341.63;;;15.54;100.00
13367;BME280;6752;52.612;13.630;2023-07-20T02:42:33;100344.52;;;15.64;100.00
13367;BME280;6752;52.612;13.630;2023-07-20T02:47:36;100346.05;;;15.58;100.00
13367;BME280;6752;52.612;13.630;2023-07-20T02:52:38;100346.95;;;15.50;100.00
13367;BME280;6752;52.612;13.630;2023-07-20T02:57:41;100360.56;;;15.61;100.00
13367;BME280;6752;52.612;13.630;2023-07-20T03:02:43;100345.82;;;15.59;100.00
13367;BME280;6752;52.612;13.630;2023-07-20T03:07:45;100350.70;;;15.65;100.00
13367;BME280;6752;52.612;13.630;2023-07-20T03:12:48;100359.69;;;15.58;100.00
13367;BME280;6752;52.612;13.630;2023-07-20T03:17:50;100358.00;;;15.68;100.00
13367;BME280;6752;52.612;13.630;2023-07-20T03:22:53;100372.59;;;15.71;100.00
13367;BME280;6752;52.612;13.630;2023-07-20T03:27:55;100375.44;;;15.57;100.00
13367;BME280;6752;52.612;13.630;2023-07-20T03:32:57;100375.98;;;15.57;100.00
13367;BME280;6752;52.612;13.630;2023-07-20T03:38:00;100373.09;;;15.66;100.00
13367;BME280;6752;52.612;13.630;2023-07-20T03:43:02;100382.91;;;15.59;100.00
13367;BME280;6752;52.612;13.630;2023-07-20T03:48:07;100390.00;;;15.66;100.00
13367;BME280;6752;52.612;13.630;2023-07-20T03:53:10;100388.63;;;15.66;100.00
13367;BME280;6752;52.612;13.630;2023-07-20T03:58:12;100390.42;;;15.58;100.00
13367;BME280;6752;52.612;13.630;2023-07-20T04:03:15;100386.85;;;15.68;100.00
13367;BME280;6752;52.612;13.630;2023-07-20T04:08:17;100382.31;;;15.68;100.00
13367;BME280;6752;52.612;13.630;2023-07-20T04:13:19;100387.91;;;15.81;100.00
13367;BME280;6752;52.612;13.630;2023-07-20T04:18:22;100392.01;;;15.78;100.00
13367;BME280;6752;52.612;13.630;2023-07-20T04:23:24;100392.14;;;15.93;100.00
13367;BME280;6752;52.612;13.630;2023-07-20T04:28:26;100388.31;;;15.97;100.00
13367;BME280;6752;52.612;13.630;2023-07-20T04:33:31;100386.97;;;16.02;100.00
13367;BME280;6752;52.612;13.630;2023-07-20T04:38:33;100392.16;;;16.15;100.00
13367;BME280;6752;52.612;13.630;2023-07-20T04:43:36;100394.92;;;16.17;100.00
13367;BME280;6752;52.612;13.630;2023-07-20T04:48:38;100397.25;;;16.14;100.00
13367;BME280;6752;52.612;13.630;2023-07-20T04:53:40;100397.94;;;16.34;100.00
13367;BME280;6752;52.612;13.630;2023-07-20T04:58:43;100399.19;;;16.37;100.00
13367;BME280;6752;52.612;13.630;2023-07-20T05:03:45;100404.27;;;16.58;100.00
13367;BME280;6752;52.612;13.630;2023-07-20T05:08:47;100414.64;;;16.67;100.00
13367;BME280;6752;52.612;13.630;2023-07-20T05:13:50;100418.09;;;16.71;100.00
13367;BME280;6752;52.612;13.630;2023-07-20T05:18:52;100409.52;;;16.65;100.00
13367;BME280;6752;52.612;13.630;2023-07-20T05:23:55;100414.73;;;16.64;100.00
13367;BME280;6752;52.612;13.630;2023-07-20T05:28:57;100415.68;;;16.58;100.00
13367;BME280;6752;52.612;13.630;2023-07-20T05:33:59;100424.02;;;16.71;100.00
13367;BME280;6752;52.612;13.630;2023-07-20T05:39:02;100423.08;;;16.77;100.00
13367;BME280;6752;52.612;13.630;2023-07-20T05:44:04;100421.09;;;16.93;100.00
13367;BME280;6752;52.612;13.630;2023-07-20T05:49:07;100424.96;;;17.39;100.00
13367;BME280;6752;52.612;13.630;2023-07-20T05:54:09;100428.36;;;17.25;100.00
13367;BME280;6752;52.612;13.630;2023-07-20T05:59:11;100428.86;;;17.58;100.00
13367;BME280;6752;52.612;13.630;2023-07-20T06:04:14;100432.08;;;17.91;100.00
13367;BME280;6752;52.612;13.630;2023-07-20T06:09:16;100427.50;;;18.39;100.00
13367;BME280;6752;52.612;13.630;2023-07-20T06:14:19;100433.73;;;18.18;100.00
13367;BME280;6752;52.612;13.630;2023-07-20T06:19:22;100440.94;;;18.86;100.00
13367;BME280;6752;52.612;13.630;2023-07-20T06:24:24;100442.94;;;19.33;100.00
13367;BME280;6752;52.612;13.630;2023-07-20T06:29:27;100448.91;;;19.53;100.00
13367;BME280;6752;52.612;13.630;2023-07-20T06:34:29;100443.66;;;19.56;100.00
13367;BME280;6752;52.612;13.630;2023-07-20T06:39:31;100460.11;;;19.27;100.00
13367;BME280;6752;52.612;13.630;2023-07-20T06:44:34;100463.74;;;19.20;100.00
13367;BME280;6752;52.612;13.630;2023-07-20T06:49:35;100460.50;;;19.00;100.00
13367;BME280;6752;52.612;13.630;2023-07-20T06:54:38;100463.25;;;19.03;100.00
13367;BME280;6752;52.612;13.630;2023-07-20T06:59:40;100467.51;;;19.42;97.51
13367;BME280;6752;52.612;13.630;2023-07-20T07:04:42;100475.38;;;18.69;97.67
13367;BME280;6752;52.612;13.630;2023-07-20T07:09:44;100475.08;;;19.95;91.96
13367;BME280;6752;52.612;13.630;2023-07-20T07:14:47;100474.65;;;19.16;93.17
13367;BME280;6752;52.612;13.630;2023-07-20T07:19:49;100483.61;;;18.82;93.95
13367;BME280;6752;52.612;13.630;2023-07-20T07:24:51;100473.79;;;18.88;94.20
13367;BME280;6752;52.612;13.630;2023-07-20T07:29:54;100464.16;;;20.60;85.43
13367;BME280;6752;52.612;13.630;2023-07-20T07:34:56;100461.77;;;20.99;81.74
13367;BME280;6752;52.612;13.630;2023-07-20T07:39:59;100466.81;;;22.24;75.56
13367;BME280;6752;52.612;13.630;2023-07-20T07:45:01;100477.45;;;21.91;75.86
13367;BME280;6752;52.612;13.630;2023-07-20T07:50:03;100489.48;;;21.77;73.54
13367;BME280;6752;52.612;13.630;2023-07-20T07:55:06;100478.75;;;22.47;71.86
13367;BME280;6752;52.612;13.630;2023-07-20T08:00:08;100479.62;;;21.94;69.33
13367;BME280;6752;52.612;13.630;2023-07-20T08:05:11;100481.83;;;21.78;71.85
13367;BME280;6752;52.612;13.630;2023-07-20T08:10:13;100479.30;;;22.24;69.56
13367;BME280;6752;52.612;13.630;2023-07-20T08:15:15;100483.83;;;21.91;68.50
13367;BME280;6752;52.612;13.630;2023-07-20T08:20:18;100493.05;;;22.08;66.94
13367;BME280;6752;52.612;13.630;2023-07-20T08:25:20;100502.28;;;21.92;65.67
13367;BME280;6752;52.612;13.630;2023-07-20T08:30:23;100499.28;;;21.69;65.65
13367;BME280;6752;52.612;13.630;2023-07-20T08:35:25;100502.95;;;21.74;66.32
13367;BME280;6752;52.612;13.630;2023-07-20T08:40:27;100501.48;;;21.98;66.59
13367;BME280;6752;52.612;13.630;2023-07-20T08:45:30;100501.71;;;22.20;66.57
13367;BME280;6752;52.612;13.630;2023-07-20T08:50:32;100502.04;;;21.98;63.42
13367;BME280;6752;52.612;13.630;2023-07-20T08:55:35;100507.44;;;22.52;65.40
13367;BME280;6752;52.612;13.630;2023-07-20T09:00:37;100491.33;;;22.29;62.00
13367;BME280;6752;52.612;13.630;2023-07-20T09:05:39;100488.44;;;23.10;61.18
13367;BME280;6752;52.612;13.630;2023-07-20T09:10:42;100479.38;;;22.91;61.09
13367;BME280;6752;52.612;13.630;2023-07-20T09:15:47;100488.83;;;23.51;61.85
13367;BME280;6752;52.612;13.630;2023-07-20T09:20:49;100483.00;;;23.82;58.67
13367;BME280;6752;52.612;13.630;2023-07-20T09:25:52;100492.66;;;23.35;60.92
13367;BME280;6752;52.612;13.630;2023-07-20T09:30:54;100480.46;;;24.68;56.68
13367;BME280;6752;52.612;13.630;2023-07-20T09:36:01;100486.45;;;23.90;58.91
13367;BME280;6752;52.612;13.630;2023-07-20T09:40:59;100489.84;;;23.55;57.28
13367;BME280;6752;52.612;13.630;2023-07-20T09:46:01;100481.20;;;25.31;56.12
13367;BME280;6752;52.612;13.630;2023-07-20T09:51:04;100495.14;;;23.09;58.42
13367;BME280;6752;52.612;13.630;2023-07-20T09:56:09;100518.89;;;22.23;62.36
13367;BME280;6752;52.612;13.630;2023-07-20T10:01:11;100518.77;;;21.55;66.82
13367;BME280;6752;52.612;13.630;2023-07-20T10:06:14;100529.45;;;21.07;68.26
13367;BME280;6752;52.612;13.630;2023-07-20T10:11:15;100533.17;;;20.95;72.04
13367;BME280;6752;52.612;13.630;2023-07-20T10:16:28;100532.44;;;21.25;72.58
13367;BME280;6752;52.612;13.630;2023-07-20T10:21:29;100529.78;;;21.27;70.03
13367;BME280;6752;52.612;13.630;2023-07-20T10:26:31;100526.05;;;21.48;70.15
13367;BME280;6752;52.612;13.630;2023-07-20T10:31:33;100527.15;;;21.81;68.64
13367;BME280;6752;52.612;13.630;2023-07-20T10:36:37;100527.50;;;22.72;68.31
13367;BME280;6752;52.612;13.630;2023-07-20T10:41:39;100512.33;;;22.51;67.39
13367;BME280;6752;52.612;13.630;2023-07-20T10:51:43;100514.34;;;22.62;64.60
13367;BME280;6752;52.612;13.630;2023-07-20T10:56:49;100515.92;;;23.18;64.10
13367;BME280;6752;52.612;13.630;2023-07-20T11:01:47;100504.62;;;23.42;63.20
13367;BME280;6752;52.612;13.630;2023-07-20T11:06:55;100506.50;;;22.89;64.04
13367;BME280;6752;52.612;13.630;2023-07-20T11:12:20;100507.59;;;23.66;62.22
13367;BME280;6752;52.612;13.630;2023-07-20T11:17:10;100505.17;;;23.07;60.76
13367;BME280;6752;52.612;13.630;2023-07-20T11:22:02;100520.19;;;22.37;61.07
13367;BME280;6752;52.612;13.630;2023-07-20T11:27:07;100525.58;;;22.03;63.40
13367;BME280;6752;52.612;13.630;2023-07-20T11:32:10;100532.62;;;22.07;64.53
13367;BME280;6752;52.612;13.630;2023-07-20T11:37:12;100533.59;;;22.07;65.91
13367;BME280;6752;52.612;13.630;2023-07-20T11:42:14;100526.70;;;21.83;66.25
13367;BME280;6752;52.612;13.630;2023-07-20T11:47:17;100530.16;;;21.32;69.44
13367;BME280;6752;52.612;13.630;2023-07-20T11:52:19;100522.63;;;21.56;67.71
13367;BME280;6752;52.612;13.630;2023-07-20T11:57:22;100524.02;;;22.97;62.99
13367;BME280;6752;52.612;13.630;2023-07-20T12:02:26;100495.68;;;24.62;57.63
13367;BME280;6752;52.612;13.630;2023-07-20T12:07:29;100499.05;;;23.99;58.25
13367;BME280;6752;52.612;13.630;2023-07-20T12:12:32;100510.61;;;23.54;59.76
13367;BME280;6752;52.612;13.630;2023-07-20T12:17:34;100530.11;;;22.34;62.27
13367;BME280;6752;52.612;13.630;2023-07-20T12:22:43;100525.28;;;22.49;62.20
13367;BME280;6752;52.612;13.630;2023-07-20T12:27:41;100519.89;;;22.55;63.01
13367;BME280;6752;52.612;13.630;2023-07-20T12:32:43;100520.50;;;22.52;62.07
13367;BME280;6752;52.612;13.630;2023-07-20T12:37:45;100522.83;;;22.61;61.30
13367;BME280;6752;52.612;13.630;2023-07-20T12:42:48;100529.44;;;22.32;62.07
13367;BME280;6752;52.612;13.630;2023-07-20T12:47:50;100527.53;;;21.71;63.72
13367;BME280;6752;52.612;13.630;2023-07-20T12:52:53;100519.44;;;22.64;61.97
13367;BME280;6752;52.612;13.630;2023-07-20T12:57:55;100516.55;;;23.36;59.62
13367;BME280;6752;52.612;13.630;2023-07-20T13:02:57;100497.45;;;24.13;56.84
13367;BME280;6752;52.612;13.630;2023-07-20T13:08:00;100501.53;;;24.05;54.58
13367;BME280;6752;52.612;13.630;2023-07-20T13:13:02;100487.59;;;24.41;56.74
13367;BME280;6752;52.612;13.630;2023-07-20T13:18:04;100485.48;;;24.89;54.51
13367;BME280;6752;52.612;13.630;2023-07-20T13:23:07;100480.76;;;25.09;53.23
13367;BME280;6752;52.612;13.630;2023-07-20T13:28:09;100479.83;;;24.76;53.31
13367;BME280;6752;52.612;13.630;2023-07-20T13:33:12;100471.98;;;25.09;53.11
13367;BME280;6752;52.612;13.630;2023-07-20T13:38:14;100469.88;;;25.19;52.57
13367;BME280;6752;52.612;13.630;2023-07-20T13:43:16;100470.05;;;25.31;51.44
13367;BME280;6752;52.612;13.630;2023-07-20T13:48:19;100454.55;;;25.03;48.31
13367;BME280;6752;52.612;13.630;2023-07-20T13:53:21;100467.20;;;24.31;50.56
13367;BME280;6752;52.612;13.630;2023-07-20T13:58:24;100456.51;;;24.14;49.80
13367;BME280;6752;52.612;13.630;2023-07-20T14:03:26;100464.16;;;24.89;51.22
13367;BME280;6752;52.612;13.630;2023-07-20T14:08:28;100454.02;;;24.42;48.86
13367;BME280;6752;52.612;13.630;2023-07-20T14:13:30;100456.66;;;23.66;49.91
13367;BME280;6752;52.612;13.630;2023-07-20T14:18:32;100456.79;;;23.68;51.18
13367;BME280;6752;52.612;13.630;2023-07-20T14:23:34;100448.17;;;24.56;50.56
13367;BME280;6752;52.612;13.630;2023-07-20T14:28:37;100448.28;;;25.09;50.12
13367;BME280;6752;52.612;13.630;2023-07-20T14:33:39;100452.05;;;24.77;49.09
13367;BME280;6752;52.612;13.630;2023-07-20T14:38:42;100458.44;;;24.78;48.56
13367;BME280;6752;52.612;13.630;2023-07-20T14:43:44;100455.14;;;24.72;48.53
13367;BME280;6752;52.612;13.630;2023-07-20T14:48:46;100447.77;;;24.91;48.08
13367;BME280;6752;52.612;13.630;2023-07-20T14:53:49;100432.73;;;25.01;46.33
13367;BME280;6752;52.612;13.630;2023-07-20T14:58:51;100442.51;;;24.85;47.73
13367;BME280;6752;52.612;13.630;2023-07-20T15:03:54;100436.94;;;24.70;45.88
13367;BME280;6752;52.612;13.630;2023-07-20T15:08:56;100436.09;;;24.49;46.82
13367;BME280;6752;52.612;13.630;2023-07-20T15:13:58;100429.53;;;24.61;47.09
13367;BME280;6752;52.612;13.630;2023-07-20T15:19:01;100450.90;;;23.31;48.35
13367;BME280;6752;52.612;13.630;2023-07-20T15:24:03;100439.45;;;23.82;48.44
13367;BME280;6752;52.612;13.630;2023-07-20T15:29:05;100437.42;;;23.92;48.29
13367;BME280;6752;52.612;13.630;2023-07-20T15:34:08;100445.14;;;23.27;48.38
13367;BME280;6752;52.612;13.630;2023-07-20T15:39:10;100449.73;;;23.13;49.11
13367;BME280;6752;52.612;13.630;2023-07-20T15:44:13;100456.20;;;23.16;50.12
13367;BME280;6752;52.612;13.630;2023-07-20T15:49:15;100448.86;;;23.09;49.40
13367;BME280;6752;52.612;13.630;2023-07-20T15:54:17;100451.12;;;22.93;49.65
13367;BME280;6752;52.612;13.630;2023-07-20T15:59:21;100451.25;;;23.72;49.35
13367;BME280;6752;52.612;13.630;2023-07-20T16:04:22;100458.70;;;23.49;49.33
13367;BME280;6752;52.612;13.630;2023-07-20T16:09:25;100461.13;;;23.39;51.83
13367;BME280;6752;52.612;13.630;2023-07-20T16:14:27;100464.81;;;23.10;50.04
13367;BME280;6752;52.612;13.630;2023-07-20T16:19:29;100476.08;;;23.16;51.49
13367;BME280;6752;52.612;13.630;2023-07-20T16:24:31;100476.03;;;22.84;51.61
13367;BME280;6752;52.612;13.630;2023-07-20T16:29:34;100473.45;;;22.88;51.07
13367;BME280;6752;52.612;13.630;2023-07-20T16:34:36;100472.55;;;22.76;49.35
13367;BME280;6752;52.612;13.630;2023-07-20T16:39:38;100483.61;;;21.88;50.31
13367;BME280;6752;52.612;13.630;2023-07-20T16:44:41;100482.69;;;21.36;50.80
13367;BME280;6752;52.612;13.630;2023-07-20T16:49:43;100490.88;;;21.74;52.16
13367;BME280;6752;52.612;13.630;2023-07-20T16:54:45;100493.89;;;21.38;52.52
13367;BME280;6752;52.612;13.630;2023-07-20T16:59:48;100497.66;;;21.75;54.82
13367;BME280;6752;52.612;13.630;2023-07-20T17:04:50;100497.97;;;21.55;55.68
13367;BME280;6752;52.612;13.630;2023-07-20T17:09:53;100502.92;;;21.37;56.34
13367;BME280;6752;52.612;13.630;2023-07-20T17:14:55;100501.22;;;21.14;56.71
13367;BME280;6752;52.612;13.630;2023-07-20T17:19:57;100506.30;;;21.05;55.91
13367;BME280;6752;52.612;13.630;2023-07-20T17:25:00;100501.06;;;21.03;56.23
13367;BME280;6752;52.612;13.630;2023-07-20T17:30:02;100501.63;;;21.03;56.02
13367;BME280;6752;52.612;13.630;2023-07-20T17:35:09;100504.54;;;21.02;55.97
13367;BME280;6752;52.612;13.630;2023-07-20T17:40:07;100506.55;;;20.70;56.48
13367;BME280;6752;52.612;13.630;2023-07-20T17:45:09;100512.20;;;20.60;56.27
13367;BME280;6752;52.612;13.630;2023-07-20T17:50:12;100516.50;;;20.39;56.07
13367;BME280;6752;52.612;13.630;2023-07-20T17:55:14;100511.70;;;20.35;55.76
13367;BME280;6752;52.612;13.630;2023-07-20T18:00:17;100513.66;;;20.30;55.31
13367;BME280;6752;52.612;13.630;2023-07-20T18:05:25;100509.31;;;20.02;54.42
13367;BME280;6752;52.612;13.630;2023-07-20T18:10:27;100510.95;;;19.83;57.05
13367;BME280;6752;52.612;13.630;2023-07-20T18:15:29;100512.74;;;19.66;58.41
13367;BME280;6752;52.612;13.630;2023-07-20T18:20:33;100515.32;;;19.42;58.38
13367;BME280;6752;52.612;13.630;2023-07-20T18:25:34;100514.03;;;19.20;58.80
13367;BME280;6752;52.612;13.630;2023-07-20T18:30:37;100514.48;;;19.05;58.57
13367;BME280;6752;52.612;13.630;2023-07-20T18:35:39;100519.64;;;18.94;59.35
13367;BME280;6752;52.612;13.630;2023-07-20T18:40:45;100531.41;;;18.62;60.58
13367;BME280;6752;52.612;13.630;2023-07-20T18:45:45;100534.70;;;18.54;61.28
13367;BME280;6752;52.612;13.630;2023-07-20T18:50:46;100543.27;;;18.27;62.33
13367;BME280;6752;52.612;13.630;2023-07-20T18:55:52;100551.52;;;18.15;63.18
13367;BME280;6752;52.612;13.630;2023-07-20T19:01:00;100549.30;;;18.01;63.85
13367;BME280;6752;52.612;13.630;2023-07-20T19:06:03;100551.20;;;17.88;64.36
13367;BME280;6752;52.612;13.630;2023-07-20T19:11:05;100549.94;;;17.75;64.76
13367;BME280;6752;52.612;13.630;2023-07-20T19:16:07;100555.16;;;17.47;66.21
13367;BME280;6752;52.612;13.630;2023-07-20T19:21:09;100555.55;;;17.40;66.51
13367;BME280;6752;52.612;13.630;2023-07-20T19:26:12;100558.77;;;17.22;67.61
13367;BME280;6752;52.612;13.630;2023-07-20T19:31:14;100562.73;;;17.15;68.13
13367;BME280;6752;52.612;13.630;2023-07-20T19:36:16;100562.28;;;17.07;67.74
13367;BME280;6752;52.612;13.630;2023-07-20T19:41:19;100571.02;;;16.99;69.05
13367;BME280;6752;52.612;13.630;2023-07-20T19:46:21;100572.87;;;16.83;70.68
13367;BME280;6752;52.612;13.630;2023-07-20T19:51:23;100574.27;;;16.88;70.70
13367;BME280;6752;52.612;13.630;2023-07-20T19:56:26;100577.62;;;16.61;72.44
13367;BME280;6752;52.612;13.630;2023-07-20T20:01:28;100579.16;;;16.65;71.93
13367;BME280;6752;52.612;13.630;2023-07-20T20:06:31;100577.33;;;16.57;72.34
13367;BME280;6752;52.612;13.630;2023-07-20T20:11:33;100574.83;;;16.40;73.19
13367;BME280;6752;52.612;13.630;2023-07-20T20:16:35;100578.67;;;16.25;75.23
13367;BME280;6752;52.612;13.630;2023-07-20T20:21:37;100582.14;;;16.29;74.39
13367;BME280;6752;52.612;13.630;2023-07-20T20:26:39;100591.14;;;16.19;74.48
13367;BME280;6752;52.612;13.630;2023-07-20T20:31:42;100593.56;;;16.13;74.09
13367;BME280;6752;52.612;13.630;2023-07-20T20:36:44;100601.84;;;16.05;73.92
13367;BME280;6752;52.612;13.630;2023-07-20T20:41:46;100603.55;;;15.98;74.16
13367;BME280;6752;52.612;13.630;2023-07-20T20:46:49;100599.82;;;15.84;74.90
13367;BME280;6752;52.612;13.630;2023-07-20T20:51:51;100598.59;;;15.73;75.36
13367;BME280;6752;52.612;13.630;2023-07-20T20:56:53;100602.56;;;15.51;77.40
13367;BME280;6752;52.612;13.630;2023-07-20T21:01:56;100601.23;;;15.35;78.39
13367;BME280;6752;52.612;13.630;2023-07-20T21:06:58;100603.73;;;15.25;78.46
13367;BME280;6752;52.612;13.630;2023-07-20T21:12:01;100598.75;;;15.22;79.67
13367;BME280;6752;52.612;13.630;2023-07-20T21:17:03;100598.77;;;15.05;80.11
13367;BME280;6752;52.612;13.630;2023-07-20T21:22:05;100603.17;;;14.79;81.85
13367;BME280;6752;52.612;13.630;2023-07-20T21:27:08;100598.55;;;14.65;81.77
13367;BME280;6752;52.612;13.630;2023-07-20T21:32:10;100588.35;;;14.44;82.62
13367;BME280;6752;52.612;13.630;2023-07-20T21:37:13;100595.02;;;14.28;83.81
13367;BME280;6752;52.612;13.630;2023-07-20T21:42:15;100605.28;;;14.12;83.69
13367;BME280;6752;52.612;13.630;2023-07-20T21:47:17;100604.70;;;14.19;83.92
13367;BME280;6752;52.612;13.630;2023-07-20T21:52:20;100615.62;;;14.08;84.77
13367;BME280;6752;52.612;13.630;2023-07-20T21:57:22;100615.15;;;13.91;86.67
13367;BME280;6752;52.612;13.630;2023-07-20T22:02:24;100615.19;;;13.99;85.52
13367;BME280;6752;52.612;13.630;2023-07-20T22:07:27;100618.14;;;13.75;88.34
13367;BME280;6752;52.612;13.630;2023-07-20T22:12:29;100622.66;;;13.69;88.68
13367;BME280;6752;52.612;13.630;2023-07-20T22:17:32;100620.63;;;13.71;87.45
13367;BME280;6752;52.612;13.630;2023-07-20T22:22:34;100624.81;;;13.73;87.68
13367;BME280;6752;52.612;13.630;2023-07-20T22:27:36;100616.73;;;13.61;92.58
13367;BME280;6752;52.612;13.630;2023-07-20T22:32:39;100614.98;;;13.55;93.60
13367;BME280;6752;52.612;13.630;2023-07-20T22:37:41;100616.41;;;13.45;93.41
13367;BME280;6752;52.612;13.630;2023-07-20T22:42:44;100614.26;;;13.47;91.51
13367;BME280;6752;52.612;13.630;2023-07-20T22:47:46;100618.64;;;13.34;94.51
13367;BME280;6752;52.612;13.630;2023-07-20T22:52:48;100613.52;;;13.38;95.10
13367;BME280;6752;52.612;13.630;2023-07-20T22:57:51;100611.00;;;13.42;94.54
13367;BME280;6752;52.612;13.630;2023-07-20T23:02:54;100610.14;;;13.21;95.25
13367;BME280;6752;52.612;13.630;2023-07-20T23:07:57;100607.34;;;13.07;95.96
13367;BME280;6752;52.612;13.630;2023-07-20T23:13:00;100608.09;;;12.99;95.93
13367;BME280;6752;52.612;13.630;2023-07-20T23:18:02;100599.50;;;12.82;97.35
13367;BME280;6752;52.612;13.630;2023-07-20T23:23:05;100592.95;;;12.83;98.96
13367;BME280;6752;52.612;13.630;2023-07-20T23:28:07;100597.66;;;12.79;97.82
13367;BME280;6752;52.612;13.630;2023-07-20T23:33:09;100598.52;;;12.70;96.15
13367;BME280;6752;52.612;13.630;2023-07-20T23:38:12;100598.22;;;12.69;96.43
13367;BME280;6752;52.612;13.630;2023-07-20T23:43:14;100603.72;;;12.42;98.34
13367;BME280;6752;52.612;13.630;2023-07-20T23:48:16;100605.86;;;12.40;98.01
13367;BME280;6752;52.612;13.630;2023-07-20T23:53:19;100600.15;;;12.15;97.67
13367;BME280;6752;52.612;13.630;2023-07-20T23:58:21;100597.01;;;12.21;98.07
